createdAt,value
2024-01-06T00:01:27.052Z,17.58
2024-01-06T00:03:56.306Z,20.55
2024-01-06T00:06:24.328Z,19.45
2024-01-06T00:08:55.777Z,18.98
2024-01-06T00:11:24.273Z,16.25
2024-01-06T00:13:53.644Z,15.18
2024-01-06T00:16:24.742Z,16.45
2024-01-06T00:18:54.803Z,14.63
2024-01-06T00:21:23.015Z,14.38
2024-01-06T00:23:52.176Z,14.43
2024-01-06T00:26:20.125Z,14.27
2024-01-06T00:28:50.139Z,15.05
2024-01-06T00:31:20.927Z,15.75
2024-01-06T00:33:49.775Z,15.48
2024-01-06T00:36:17.842Z,15.57
2024-01-06T00:38:46.450Z,16.17
2024-01-06T00:41:15.828Z,15.63
2024-01-06T00:43:44.707Z,17.08
2024-01-06T00:46:13.306Z,15.93
2024-01-06T00:48:42.935Z,16.70
2024-01-06T00:51:12.121Z,17.25
2024-01-06T00:53:40.525Z,15.88
2024-01-06T00:56:08.663Z,14.75
2024-01-06T00:58:36.607Z,18.58
2024-01-06T01:01:06.393Z,15.55
2024-01-06T01:03:34.491Z,16.38
2024-01-06T01:06:04.250Z,14.10
2024-01-06T01:08:33.185Z,13.80
2024-01-06T01:11:01.302Z,15.23
2024-01-06T01:13:29.894Z,15.35
2024-01-06T01:15:58.689Z,14.32
2024-01-06T01:18:27.010Z,16.13
2024-01-06T01:20:55.005Z,17.67
2024-01-06T01:23:25.492Z,15.70
2024-01-06T01:28:21.209Z,15.13
2024-01-06T01:30:49.955Z,16.13
2024-01-06T01:33:18.245Z,15.70
2024-01-06T01:35:46.890Z,14.23
2024-01-06T01:38:15.481Z,15.45
2024-01-06T01:40:44.921Z,15.27
2024-01-06T01:43:19.909Z,17.55
2024-01-06T01:45:52.896Z,15.63
2024-01-06T01:48:22.370Z,15.02
2024-01-06T01:50:50.721Z,14.23
2024-01-06T01:53:19.746Z,15.52
2024-01-06T01:55:50.810Z,17.10
2024-01-06T01:58:19.463Z,17.33
2024-01-06T02:00:47.629Z,15.35
2024-01-06T02:03:16.842Z,17.10
2024-01-06T02:05:45.054Z,16.52
2024-01-06T02:09:17.204Z,18.40
2024-01-06T02:11:47.374Z,17.15
2024-01-06T02:14:16.349Z,15.73
2024-01-06T02:16:44.191Z,16.80
2024-01-06T02:19:14.953Z,17.55
2024-01-06T02:21:45.459Z,18.50
2024-01-06T02:24:14.999Z,16.92
2024-01-06T02:26:43.557Z,17.30
2024-01-06T02:29:12.120Z,19.15
2024-01-06T02:31:40.575Z,16.48
2024-01-06T02:34:08.773Z,16.45
2024-01-06T02:36:37.867Z,17.10
2024-01-06T02:39:05.794Z,16.80
2024-01-06T02:41:35.618Z,19.65
2024-01-06T02:44:05.911Z,19.30
2024-01-06T02:46:34.014Z,17.70
2024-01-06T02:49:02.067Z,18.63
2024-01-06T02:51:31.348Z,17.73
2024-01-06T02:53:59.294Z,19.85
2024-01-06T02:56:27.818Z,20.05
2024-01-06T02:58:57.724Z,19.42
2024-01-06T03:01:26.020Z,19.35
2024-01-06T03:03:54.016Z,19.75
2024-01-06T03:06:22.711Z,21.33
2024-01-06T03:08:50.626Z,19.70
2024-01-06T03:11:19.107Z,21.80
2024-01-06T03:13:47.483Z,23.45
2024-01-06T03:16:17.037Z,23.65
2024-01-06T03:18:45.723Z,25.27
2024-01-06T03:21:20.192Z,25.17
2024-01-06T03:23:48.621Z,24.50
2024-01-06T03:26:16.516Z,22.83
2024-01-06T03:28:45.601Z,24.33
2024-01-06T03:31:13.543Z,25.20
2024-01-06T03:33:43.527Z,24.35
2024-01-06T03:36:12.486Z,29.60
2024-01-06T03:38:40.822Z,23.98
2024-01-06T03:41:08.806Z,23.23
2024-01-06T03:43:38.068Z,24.63
2024-01-06T03:46:07.427Z,29.23
2024-01-06T03:48:36.530Z,24.17
2024-01-06T03:53:53.441Z,25.20
2024-01-06T03:56:21.868Z,22.80
2024-01-06T03:58:50.399Z,23.53
2024-01-06T04:01:18.790Z,21.95
2024-01-06T04:03:47.011Z,27.23
2024-01-06T04:06:16.487Z,22.75
2024-01-06T04:08:45.621Z,23.02
2024-01-06T04:11:13.569Z,23.65
2024-01-06T04:13:42.229Z,22.70
2024-01-06T04:16:10.721Z,22.42
2024-01-06T04:18:38.938Z,24.20
2024-01-06T04:21:07.133Z,22.80
2024-01-06T04:23:37.963Z,23.75
2024-01-06T04:26:06.053Z,15.63
2024-01-06T04:28:34.710Z,20.13
2024-01-06T04:31:03.328Z,20.20
2024-01-06T04:33:32.394Z,22.67
2024-01-06T04:36:00.597Z,22.23
2024-01-06T04:38:29.583Z,19.60
2024-01-06T04:40:58.914Z,21.58
2024-01-06T04:43:27.957Z,21.20
2024-01-06T04:45:56.504Z,19.35
2024-01-06T04:48:24.829Z,18.92
2024-01-06T04:50:52.874Z,18.23
2024-01-06T04:53:22.452Z,19.38
2024-01-06T04:55:50.379Z,18.77
2024-01-06T04:58:20.286Z,17.77
2024-01-06T05:00:49.168Z,18.85
2024-01-06T05:03:17.398Z,21.23
2024-01-06T05:05:45.484Z,15.55
2024-01-06T05:08:14.393Z,17.60
2024-01-06T05:10:42.415Z,19.15
2024-01-06T05:13:11.139Z,18.15
2024-01-06T05:15:40.962Z,18.80
2024-01-06T05:18:09.388Z,17.15
2024-01-06T05:20:37.432Z,17.63
2024-01-06T05:23:07.134Z,18.42
2024-01-06T05:25:35.205Z,17.98
2024-01-06T05:28:03.681Z,17.42
2024-01-06T05:30:32.390Z,16.88
2024-01-06T05:33:02.044Z,17.97
2024-01-06T05:35:30.661Z,17.33
2024-01-06T05:37:59.095Z,19.10
2024-01-06T05:40:26.842Z,19.25
2024-01-06T05:42:56.733Z,15.98
2024-01-06T05:45:28.356Z,15.70
2024-01-06T05:47:58.382Z,14.80
2024-01-06T05:50:28.431Z,14.02
2024-01-06T05:52:56.543Z,14.10
2024-01-06T05:55:25.119Z,14.98
2024-01-06T05:57:54.271Z,11.80
2024-01-06T06:00:22.719Z,16.45
2024-01-06T06:02:51.313Z,11.97
2024-01-06T06:05:20.766Z,11.65
2024-01-06T06:07:50.418Z,10.25
2024-01-06T06:10:19.829Z,13.52
2024-01-06T06:12:49.407Z,11.05
2024-01-06T06:15:17.459Z,10.52
2024-01-06T06:17:46.439Z,10.93
2024-01-06T06:20:16.134Z,10.15
2024-01-06T06:22:44.254Z,11.02
2024-01-06T06:25:13.595Z,11.52
2024-01-06T06:27:42.984Z,10.98
2024-01-06T06:30:12.078Z,11.93
2024-01-06T06:32:40.781Z,12.05
2024-01-06T06:35:10.571Z,11.65
2024-01-06T06:37:39.293Z,10.75
2024-01-06T06:40:08.803Z,10.48
2024-01-06T06:42:38.779Z,10.70
2024-01-06T06:45:07.679Z,13.00
2024-01-06T06:47:36.332Z,9.35
2024-01-06T06:50:05.080Z,9.25
2024-01-06T06:52:33.213Z,8.77
2024-01-06T06:55:01.190Z,9.50
2024-01-06T06:57:30.429Z,9.65
2024-01-06T07:00:01.223Z,8.50
2024-01-06T07:02:30.593Z,7.50
2024-01-06T07:04:58.694Z,8.63
2024-01-06T07:07:27.135Z,8.75
2024-01-06T07:09:56.593Z,10.25
2024-01-06T07:12:24.838Z,8.55
2024-01-06T07:14:52.766Z,10.90
2024-01-06T07:17:22.785Z,9.35
2024-01-06T07:19:51.012Z,9.77
2024-01-06T07:22:20.157Z,11.07
2024-01-06T07:24:48.685Z,10.35
2024-01-06T07:27:16.864Z,11.77
2024-01-06T07:29:44.771Z,12.55
2024-01-06T07:32:13.760Z,12.60
2024-01-06T07:34:44.561Z,13.38
2024-01-06T07:37:13.269Z,12.82
2024-01-06T07:39:41.175Z,11.60
2024-01-06T07:42:09.694Z,12.98
2024-01-06T07:44:38.300Z,12.57
2024-01-06T07:47:07.209Z,13.53
2024-01-06T07:49:35.250Z,10.02
2024-01-06T07:52:06.440Z,12.35
2024-01-06T07:54:34.633Z,11.25
2024-01-06T07:57:03.229Z,10.98
2024-01-06T07:59:32.398Z,10.07
2024-01-06T08:02:00.493Z,11.98
2024-01-06T08:04:29.337Z,12.68
2024-01-06T08:06:57.767Z,8.95
2024-01-06T08:09:27.297Z,11.10
2024-01-06T08:11:56.184Z,14.20
2024-01-06T08:14:26.063Z,14.23
2024-01-06T08:16:54.148Z,12.73
2024-01-06T08:19:22.240Z,11.93
2024-01-06T08:21:51.373Z,14.85
2024-01-06T08:24:19.386Z,13.75
2024-01-06T08:26:49.492Z,14.05
2024-01-06T08:29:18.087Z,14.90
2024-01-06T08:31:46.537Z,12.77
2024-01-06T08:34:14.780Z,13.57
2024-01-06T08:36:44.132Z,13.00
2024-01-06T08:39:12.406Z,11.00
2024-01-06T08:41:41.150Z,13.07
2024-01-06T08:44:11.214Z,10.80
2024-01-06T08:46:39.453Z,10.93
2024-01-06T08:49:07.554Z,11.95
2024-01-06T08:51:37.410Z,14.18
2024-01-06T08:54:06.428Z,14.02
2024-01-06T08:56:39.529Z,14.70
2024-01-06T08:59:07.596Z,14.82
2024-01-06T09:01:38.561Z,12.95
2024-01-06T09:04:08.122Z,13.15
2024-01-06T09:06:36.352Z,15.43
2024-01-06T09:09:05.113Z,15.55
2024-01-06T09:11:33.672Z,15.55
2024-01-06T09:14:02.094Z,15.35
2024-01-06T09:16:30.147Z,18.38
2024-01-06T09:19:01.290Z,21.90
2024-01-06T09:21:29.590Z,17.35
2024-01-06T09:23:57.644Z,18.33
2024-01-06T09:26:26.381Z,21.77
2024-01-06T09:28:54.968Z,16.70
2024-01-06T09:31:23.595Z,17.30
2024-01-06T09:33:52.618Z,19.42
2024-01-06T09:36:22.227Z,18.52
2024-01-06T09:41:19.080Z,17.73
2024-01-06T09:43:49.753Z,20.75
2024-01-06T09:46:27.591Z,22.63
2024-01-06T09:48:57.067Z,18.50
2024-01-06T09:51:28.736Z,14.88
2024-01-06T09:53:59.847Z,14.57
2024-01-06T09:56:29.961Z,18.05
2024-01-06T09:58:58.193Z,16.17
2024-01-06T10:01:26.944Z,16.52
2024-01-06T10:03:55.707Z,13.13
2024-01-06T10:06:24.029Z,15.03
2024-01-06T10:08:55.120Z,16.77
2024-01-06T10:11:25.373Z,13.30
2024-01-06T10:16:25.131Z,14.60
2024-01-06T10:18:55.342Z,16.58
2024-01-06T10:21:24.284Z,13.82
2024-01-06T10:23:58.747Z,17.75
2024-01-06T10:26:27.427Z,13.73
2024-01-06T10:28:55.529Z,14.00
2024-01-06T10:31:24.793Z,15.10
2024-01-06T10:33:53.077Z,13.75
2024-01-06T10:36:23.244Z,15.70
2024-01-06T10:38:53.968Z,14.25
2024-01-06T10:41:25.144Z,15.02
2024-01-06T10:43:54.569Z,13.68
2024-01-06T10:46:25.327Z,11.00
2024-01-06T10:48:55.169Z,12.23
2024-01-06T10:51:25.450Z,9.27
2024-01-06T10:53:56.079Z,12.30
2024-01-06T10:56:27.276Z,11.15
2024-01-06T10:58:56.731Z,12.07
2024-01-06T11:01:29.210Z,10.70
2024-01-06T11:04:00.824Z,14.30
2024-01-06T11:09:09.519Z,12.80
2024-01-06T11:11:40.734Z,12.35
2024-01-06T11:14:25.823Z,10.85
2024-01-06T11:16:55.947Z,10.80
2024-01-06T11:19:56.659Z,10.93
2024-01-06T11:22:29.680Z,10.85
2024-01-06T11:25:06.358Z,11.20
2024-01-06T11:27:37.981Z,10.45
2024-01-06T11:30:08.934Z,11.20
2024-01-06T11:32:40.201Z,10.73
2024-01-06T11:35:11.411Z,9.43
2024-01-06T11:37:57.454Z,9.68
2024-01-06T11:40:34.524Z,9.45
2024-01-06T11:43:07.813Z,8.52
2024-01-06T11:45:38.276Z,8.80
2024-01-06T11:48:08.304Z,7.57
2024-01-06T11:50:38.733Z,7.05
2024-01-06T11:53:08.489Z,7.10
2024-01-06T11:55:37.967Z,8.02
2024-01-06T11:58:08.259Z,6.53
2024-01-06T12:00:38.154Z,7.88
2024-01-06T12:03:07.316Z,6.55
2024-01-06T12:05:35.249Z,6.97
2024-01-06T12:08:09.094Z,6.65
2024-01-06T12:10:39.101Z,5.97
2024-01-06T12:13:13.108Z,6.03
2024-01-06T12:15:42.913Z,5.55
2024-01-06T12:18:11.495Z,7.95
2024-01-06T12:20:40.961Z,8.27
2024-01-06T12:23:09.001Z,5.80
2024-01-06T12:25:40.865Z,6.10
2024-01-06T12:28:13.449Z,6.28
2024-01-06T12:30:42.074Z,5.15
2024-01-06T12:33:10.440Z,6.03
2024-01-06T12:35:39.014Z,5.53
2024-01-06T12:38:08.862Z,4.90
2024-01-06T12:40:39.344Z,6.55
2024-01-06T12:43:08.221Z,7.40
2024-01-06T12:45:38.088Z,8.18
2024-01-06T12:48:08.044Z,7.00
2024-01-06T12:50:36.468Z,8.20
2024-01-06T12:53:04.646Z,8.57
2024-01-06T12:55:33.410Z,9.77
2024-01-06T12:58:05.058Z,4.10
2024-01-06T13:00:37.200Z,5.38
2024-01-06T13:03:07.419Z,5.07
2024-01-06T13:05:36.260Z,5.32
2024-01-06T13:08:04.748Z,4.60
2024-01-06T13:10:33.408Z,5.53
2024-01-06T13:13:01.900Z,5.18
2024-01-06T13:15:30.166Z,3.78
2024-01-06T13:17:58.312Z,4.93
2024-01-06T13:20:29.271Z,4.33
2024-01-06T13:22:57.462Z,4.75
2024-01-06T13:25:25.476Z,4.28
2024-01-06T13:27:54.713Z,4.88
2024-01-06T13:30:22.953Z,4.20
2024-01-06T13:32:52.240Z,5.65
2024-01-06T13:35:21.137Z,6.03
2024-01-06T13:37:52.514Z,6.07
2024-01-06T13:40:22.248Z,6.25
2024-01-06T13:42:51.879Z,5.55
2024-01-06T13:45:20.869Z,5.40
2024-01-06T13:47:49.740Z,7.20
2024-01-06T13:50:19.140Z,5.07
2024-01-06T13:52:47.900Z,6.70
2024-01-06T13:55:18.914Z,5.50
2024-01-06T13:57:47.164Z,7.00
2024-01-06T14:00:21.201Z,5.90
2024-01-06T14:02:49.744Z,6.35
2024-01-06T14:05:18.240Z,6.15
2024-01-06T14:07:50.344Z,5.10
2024-01-06T14:10:20.087Z,5.57
2024-01-06T14:12:49.012Z,4.97
2024-01-06T14:15:17.931Z,7.72
2024-01-06T14:17:50.951Z,5.13
2024-01-06T14:20:20.935Z,4.93
2024-01-06T14:22:49.394Z,5.63
2024-01-06T14:25:20.074Z,4.50
2024-01-06T14:27:49.536Z,4.68
2024-01-06T14:30:17.774Z,4.82
2024-01-06T14:32:46.634Z,4.13
2024-01-06T14:35:16.093Z,4.20
2024-01-06T14:37:45.625Z,3.17
2024-01-06T14:40:14.578Z,3.50
2024-01-06T14:42:46.614Z,2.45
2024-01-06T14:45:15.360Z,1.58
2024-01-06T14:47:43.579Z,1.70
2024-01-06T14:50:12.980Z,1.40
2024-01-06T14:52:40.997Z,1.63
2024-01-06T14:55:11.243Z,1.80
2024-01-06T14:57:40.728Z,1.33
2024-01-06T15:00:12.136Z,1.42
2024-01-06T15:02:41.113Z,2.88
2024-01-06T15:05:10.897Z,2.17
2024-01-06T15:07:39.415Z,3.30
2024-01-06T15:10:10.783Z,2.05
2024-01-06T15:12:39.248Z,2.42
2024-01-06T15:15:09.538Z,6.55
2024-01-06T15:17:39.841Z,8.20
2024-01-06T15:20:11.310Z,2.30
2024-01-06T15:22:41.522Z,3.05
2024-01-06T15:25:11.232Z,4.13
2024-01-06T15:27:40.743Z,2.95
2024-01-06T15:30:10.186Z,3.63
2024-01-06T15:32:44.193Z,2.30
2024-01-06T15:35:12.665Z,2.70
2024-01-06T15:37:40.707Z,2.78
2024-01-06T15:40:11.268Z,3.70
2024-01-06T15:42:39.553Z,3.40
2024-01-06T15:45:08.416Z,2.90
2024-01-06T15:47:39.224Z,3.83
2024-01-06T15:50:09.905Z,3.17
2024-01-06T15:52:39.673Z,3.83
2024-01-06T15:55:08.422Z,3.75
2024-01-06T15:57:38.597Z,4.90
2024-01-06T16:00:07.709Z,4.85
2024-01-06T16:02:35.833Z,5.88
2024-01-06T16:05:05.368Z,5.65
2024-01-06T16:07:35.850Z,7.55
2024-01-06T16:10:03.983Z,10.43
2024-01-06T16:12:32.269Z,10.43
2024-01-06T16:15:02.142Z,11.05
2024-01-06T16:17:30.221Z,8.80
2024-01-06T16:19:59.061Z,8.20
2024-01-06T16:22:27.840Z,9.13
2024-01-06T16:24:57.557Z,12.17
2024-01-06T16:27:25.615Z,9.13
2024-01-06T16:29:54.886Z,8.35
2024-01-06T16:32:23.418Z,10.77
2024-01-06T16:34:52.156Z,7.95
2024-01-06T16:37:20.826Z,9.55
2024-01-06T16:39:50.076Z,9.82
2024-01-06T16:42:21.487Z,8.90
2024-01-06T16:44:49.728Z,10.13
2024-01-06T16:47:17.689Z,8.73
2024-01-06T16:49:47.888Z,12.00
2024-01-06T16:52:16.351Z,11.00
2024-01-06T16:54:45.446Z,12.50
2024-01-06T16:57:15.538Z,10.88
2024-01-06T16:59:48.440Z,11.98
2024-01-06T17:02:17.666Z,9.68
2024-01-06T17:04:45.767Z,9.60
2024-01-06T17:07:14.664Z,11.15
2024-01-06T17:09:43.873Z,13.55
2024-01-06T17:12:11.974Z,11.05
2024-01-06T17:14:39.962Z,12.38
2024-01-06T17:17:10.347Z,11.02
2024-01-06T17:19:38.797Z,11.68
2024-01-06T17:22:06.840Z,13.93
2024-01-06T17:24:37.143Z,14.45
2024-01-06T17:27:05.925Z,13.00
2024-01-06T17:29:33.897Z,14.13
2024-01-06T17:32:03.412Z,13.10
2024-01-06T17:34:33.442Z,14.80
2024-01-06T17:37:02.178Z,14.05
2024-01-06T17:39:30.634Z,15.60
2024-01-06T17:42:00.446Z,16.60
2024-01-06T17:44:33.533Z,15.45
2024-01-06T17:47:01.719Z,16.00
2024-01-06T17:49:30.635Z,15.50
2024-01-06T17:52:02.016Z,15.75
2024-01-06T17:54:30.192Z,20.40
2024-01-06T17:56:59.222Z,16.70
2024-01-06T17:59:29.649Z,19.17
2024-01-06T18:01:57.718Z,18.63
2024-01-06T18:04:30.683Z,18.25
2024-01-06T18:07:01.071Z,20.52
2024-01-06T18:09:30.780Z,19.90
2024-01-06T18:11:58.741Z,22.03
2024-01-06T18:14:36.422Z,20.92
2024-01-06T18:17:04.998Z,22.23
2024-01-06T18:19:33.384Z,19.88
2024-01-06T18:22:03.483Z,23.60
2024-01-06T18:24:46.421Z,22.05
2024-01-06T18:27:15.152Z,22.73
2024-01-06T18:29:43.897Z,20.65
2024-01-06T18:32:14.231Z,22.80
2024-01-06T18:34:47.368Z,21.65
2024-01-06T18:37:17.716Z,22.50
2024-01-06T18:39:45.949Z,20.23
2024-01-06T18:42:15.757Z,23.55
2024-01-06T18:44:43.910Z,24.35
2024-01-06T18:47:15.938Z,18.50
2024-01-06T18:49:44.313Z,23.25
2024-01-06T18:52:12.867Z,24.05
2024-01-06T18:54:44.865Z,25.90
2024-01-06T18:57:15.205Z,23.83
2024-01-06T18:59:46.023Z,28.27
2024-01-06T19:02:14.423Z,25.20
2024-01-06T19:04:43.417Z,25.10
2024-01-06T19:09:40.463Z,24.08
2024-01-06T19:12:10.483Z,26.33
2024-01-06T19:14:39.552Z,26.73
2024-01-06T19:17:07.800Z,23.73
2024-01-06T19:19:41.306Z,25.45
2024-01-06T19:22:09.708Z,26.52
2024-01-06T19:24:43.361Z,30.10
2024-01-06T19:27:14.354Z,29.33
2024-01-06T19:29:47.191Z,32.35
2024-01-06T19:32:16.891Z,30.80
2024-01-06T19:34:45.334Z,37.00
2024-01-06T19:37:14.185Z,33.97
2024-01-06T19:39:42.617Z,30.55
2024-01-06T19:42:10.740Z,32.17
2024-01-06T19:44:40.169Z,27.83
2024-01-06T19:47:10.941Z,30.50
2024-01-06T19:49:39.616Z,33.63
2024-01-06T19:52:08.205Z,32.85
2024-01-06T19:54:37.826Z,36.97
2024-01-06T19:57:06.568Z,32.63
2024-01-06T19:59:34.693Z,34.00
2024-01-06T20:02:06.529Z,31.60
2024-01-06T20:04:34.745Z,31.75
2024-01-06T20:07:03.014Z,36.53
2024-01-06T20:09:31.982Z,44.27
2024-01-06T20:11:59.919Z,39.55
2024-01-06T20:14:28.125Z,38.08
2024-01-06T20:16:57.455Z,35.92
2024-01-06T20:19:27.499Z,42.00
2024-01-06T20:21:56.489Z,37.63
2024-01-06T20:24:25.070Z,37.80
2024-01-06T20:26:54.848Z,35.50
2024-01-06T20:29:25.644Z,38.45
2024-01-06T20:31:54.066Z,34.63
2024-01-06T20:34:22.990Z,42.78
2024-01-06T20:36:52.982Z,40.65
2024-01-06T20:39:21.282Z,38.97
2024-01-06T20:41:49.746Z,38.03
2024-01-06T20:44:18.922Z,36.83
2024-01-06T20:46:48.828Z,43.60
2024-01-06T20:49:17.497Z,36.72
2024-01-06T20:51:45.984Z,41.15
2024-01-06T20:54:15.443Z,36.15
2024-01-06T20:59:13.259Z,35.42
2024-01-06T21:01:41.368Z,39.70
2024-01-06T21:04:09.673Z,35.65
2024-01-06T21:06:39.918Z,32.17
2024-01-06T21:09:10.295Z,37.70
2024-01-06T21:11:42.522Z,37.58
2024-01-06T21:14:10.912Z,36.90
2024-01-06T21:16:41.444Z,36.33
2024-01-06T21:19:10.385Z,36.72
2024-01-06T21:21:38.756Z,34.08
2024-01-06T21:24:09.630Z,34.33
2024-01-06T21:26:37.930Z,38.72
2024-01-06T21:29:07.396Z,35.20
2024-01-06T21:31:36.724Z,38.42
2024-01-06T21:34:04.958Z,34.45
2024-01-06T21:36:34.102Z,32.08
2024-01-06T21:39:02.569Z,36.70
2024-01-06T21:41:30.721Z,38.78
2024-01-06T21:43:59.173Z,35.83
2024-01-06T21:46:29.745Z,32.95
2024-01-06T21:48:57.972Z,37.85
2024-01-06T21:51:27.068Z,36.58
2024-01-06T21:53:57.837Z,40.13
2024-01-06T21:56:26.065Z,36.50
2024-01-06T21:58:54.566Z,38.60
2024-01-06T22:01:23.316Z,33.05
2024-01-06T22:03:52.828Z,35.45
2024-01-06T22:06:23.137Z,39.30
2024-01-06T22:08:51.343Z,36.67
2024-01-06T22:11:19.485Z,35.88
2024-01-06T22:13:50.082Z,36.80
2024-01-06T22:16:19.444Z,33.78
2024-01-06T22:18:47.997Z,34.88
2024-01-06T22:21:19.569Z,33.45
2024-01-06T22:23:47.722Z,36.53
2024-01-06T22:26:16.009Z,34.67
2024-01-06T22:28:45.337Z,33.55
2024-01-06T22:31:13.452Z,31.90
2024-01-06T22:33:42.211Z,33.70
2024-01-06T22:36:13.836Z,31.67
2024-01-06T22:38:52.355Z,30.80
2024-01-06T22:41:24.454Z,31.50
2024-01-06T22:43:52.644Z,32.63
2024-01-06T22:46:23.438Z,31.08
2024-01-06T22:48:54.442Z,36.28
2024-01-06T22:51:22.584Z,32.05
2024-01-06T22:53:52.730Z,33.10
2024-01-06T22:56:21.310Z,33.45
2024-01-06T22:58:49.360Z,32.28
2024-01-06T23:01:17.478Z,31.90
2024-01-06T23:03:46.623Z,33.55
2024-01-06T23:06:14.885Z,32.95
2024-01-06T23:08:45.204Z,31.17
2024-01-06T23:11:17.170Z,27.88
2024-01-06T23:13:45.352Z,31.48
2024-01-06T23:16:14.442Z,27.92
2024-01-06T23:18:43.887Z,24.95
2024-01-06T23:21:11.979Z,24.83
2024-01-06T23:23:43.679Z,25.33
2024-01-06T23:26:12.254Z,23.42
2024-01-06T23:28:41.858Z,23.77
2024-01-06T23:31:11.470Z,25.42
2024-01-06T23:33:39.724Z,23.08
2024-01-06T23:36:09.021Z,22.70
2024-01-06T23:38:37.607Z,24.70
2024-01-06T23:41:06.132Z,23.00
2024-01-06T23:43:34.486Z,22.92
2024-01-06T23:46:05.810Z,21.83
2024-01-06T23:48:34.013Z,23.67
2024-01-06T23:51:02.028Z,20.25
2024-01-06T23:53:31.310Z,22.73
2024-01-06T23:55:59.632Z,23.58
2024-01-06T23:58:28.233Z,23.63
